Time;durP1;ratioP1;P1;durP2;ratioP2;P2;SDS_P1;SDS_P2;PMS_P1;PMS_P2;Temp;Humidity;BMP_temperature;BMP_pressure;BME280_temperature;BME280_humidity;BME280_pressure;Samples;Min_cycle;Max_cycle;Signal;HPM_P1;HPM_P2
2021/11/23 00:01:17;;;;;;;3.83;1.60;;;8.30;70.40;;;;;;2327470;54;20978;-69
2021/11/23 00:03:46;;;;;;;4.03;1.40;;;8.20;70.30;;;;;;2524485;54;20965;-70
2021/11/23 00:06:15;;;;;;;4.25;1.33;;;8.20;70.30;;;;;;2319689;54;21796;-68
2021/11/23 00:08:42;;;;;;;2.75;1.50;;;8.20;70.30;;;;;;2318416;54;21007;-70
2021/11/23 00:11:08;;;;;;;3.35;1.73;;;8.10;70.10;;;;;;2548930;53;21832;-70
2021/11/23 00:13:35;;;;;;;2.87;1.40;;;8.10;70.10;;;;;;2322680;54;20991;-70
2021/11/23 00:16:01;;;;;;;3.20;1.50;;;8.10;70.00;;;;;;2325657;54;22076;-69
2021/11/23 00:18:28;;;;;;;3.30;1.62;;;8.00;69.80;;;;;;2550267;53;21537;-70
2021/11/23 00:20:57;;;;;;;3.15;1.55;;;8.00;69.90;;;;;;2318444;54;21044;-71
2021/11/23 00:23:33;;;;;;;3.58;1.80;;;7.90;69.80;;;;;;2559727;53;21064;-71
2021/11/23 00:26:00;;;;;;;3.28;1.70;;;7.90;69.60;;;;;;2314410;54;20942;-69
2021/11/23 00:28:26;;;;;;;3.72;1.70;;;7.90;69.80;;;;;;2551760;53;21006;-69
2021/11/23 00:31:01;;;;;;;3.65;1.80;;;7.80;69.80;;;;;;2558341;53;20949;-69
2021/11/23 00:33:44;;;;;;;3.30;1.60;;;7.80;69.50;;;;;;2553770;53;21541;-68
2021/11/23 00:36:53;;;;;;;3.20;1.70;;;7.80;69.40;;;;;;2316297;54;20997;-70
2021/11/23 00:39:22;;;;;;;3.62;1.70;;;7.70;69.30;;;;;;2551253;53;22234;-70
2021/11/23 00:41:49;;;;;;;2.80;1.52;;;7.70;69.80;;;;;;2334529;54;20929;-69
2021/11/23 00:44:30;;;;;;;4.80;1.80;;;7.60;69.80;;;;;;2552898;53;21077;-70
2021/11/23 00:46:56;;;;;;;3.37;1.75;;;7.60;69.60;;;;;;2317162;54;20937;-68
2021/11/23 00:49:23;;;;;;;3.62;1.85;;;7.60;70.00;;;;;;2546334;53;21004;-69
2021/11/23 00:51:50;;;;;;;2.92;1.77;;;7.50;69.80;;;;;;2570358;53;20961;-69
2021/11/23 00:54:32;;;;;;;3.22;1.95;;;7.50;69.80;;;;;;2555412;53;21997;-69
2021/11/23 00:56:58;;;;;;;2.75;1.65;;;7.50;69.60;;;;;;2311063;54;21554;-69
2021/11/23 00:59:25;;;;;;;4.72;1.65;;;7.40;69.80;;;;;;2332873;54;20996;-69
2021/11/23 01:01:52;;;;;;;2.92;1.50;;;7.40;69.80;;;;;;2551052;53;20995;-70
2021/11/23 01:04:19;;;;;;;2.90;1.62;;;7.40;69.80;;;;;;2550649;54;21007;-69
2021/11/23 01:06:49;;;;;;;3.30;1.67;;;7.40;69.80;;;;;;2525186;54;21097;-68
2021/11/23 01:09:33;;;;;;;3.37;1.80;;;7.30;69.70;;;;;;2548344;54;20975;-69
2021/11/23 01:11:59;;;;;;;3.85;1.83;;;7.30;70.10;;;;;;2307763;55;21414;-69
2021/11/23 01:14:26;;;;;;;3.58;1.87;;;7.20;69.60;;;;;;2550561;53;22221;-68
2021/11/23 01:16:52;;;;;;;3.87;1.90;;;7.20;69.60;;;;;;2570129;53;21006;-70
2021/11/23 01:19:19;;;;;;;3.12;1.55;;;7.20;69.60;;;;;;2297326;55;21017;-69
2021/11/23 01:21:48;;;;;;;2.90;1.62;;;7.10;69.50;;;;;;2552906;53;21102;-70
2021/11/23 01:24:15;;;;;;;3.03;1.52;;;7.10;70.20;;;;;;2317941;54;20996;-67
2021/11/23 01:26:41;;;;;;;3.58;1.65;;;7.10;69.50;;;;;;2552502;54;22644;-70
2021/11/23 01:29:29;;;;;;;2.85;1.55;;;7.10;69.50;;;;;;2299430;54;21082;-70
2021/11/23 01:32:31;;;;;;;2.85;1.50;;;7.00;68.90;;;;;;2524627;54;20961;-68
2021/11/23 01:35:00;;;;;;;3.28;1.77;;;7.00;68.80;;;;;;2317617;54;20990;-70
2021/11/23 01:37:27;;;;;;;2.60;1.45;;;6.90;68.80;;;;;;2552996;53;21026;-69
2021/11/23 01:39:54;;;;;;;3.67;1.87;;;6.90;68.90;;;;;;2318903;54;20945;-69
2021/11/23 01:42:24;;;;;;;3.53;1.73;;;6.80;68.70;;;;;;2317847;54;21018;-68
2021/11/23 01:44:51;;;;;;;4.97;1.80;;;6.80;68.60;;;;;;2552802;53;20992;-70
2021/11/23 01:47:18;;;;;;;3.40;1.87;;;6.70;68.50;;;;;;2551882;54;21083;-69
2021/11/23 01:49:45;;;;;;;4.28;2.10;;;6.70;68.40;;;;;;2311419;54;20983;-70
2021/11/23 01:52:15;;;;;;;3.30;1.65;;;6.60;68.20;;;;;;2551658;53;22138;-68
2021/11/23 01:54:43;;;;;;;3.35;1.70;;;6.50;68.10;;;;;;2560530;53;21003;-68
2021/11/23 01:57:10;;;;;;;4.80;2.00;;;6.50;68.10;;;;;;2325477;54;21546;-69
2021/11/23 01:59:37;;;;;;;3.50;1.90;;;6.40;68.00;;;;;;2323102;54;20948;-69
2021/11/23 02:02:03;;;;;;;3.30;1.67;;;6.30;68.00;;;;;;2551225;54;21050;-69
2021/11/23 02:04:32;;;;;;;2.87;1.62;;;6.30;68.10;;;;;;2327923;53;20993;-70
2021/11/23 02:06:59;;;;;;;3.62;1.80;;;6.20;68.00;;;;;;2530220;53;20978;-70
2021/11/23 02:09:28;;;;;;;3.20;1.80;;;6.10;68.00;;;;;;2317894;54;21016;-70
2021/11/23 02:11:56;;;;;;;3.12;1.67;;;6.10;68.10;;;;;;2550634;54;20950;-69
2021/11/23 02:14:26;;;;;;;3.62;1.83;;;6.00;68.20;;;;;;2326269;54;21678;-70
2021/11/23 02:16:56;;;;;;;3.95;2.00;;;6.00;68.30;;;;;;2548213;54;20950;-70
2021/11/23 02:19:23;;;;;;;3.30;1.83;;;5.90;68.40;;;;;;2326327;54;20981;-70
2021/11/23 02:21:49;;;;;;;3.58;1.58;;;5.90;68.40;;;;;;2552776;53;21010;-69
2021/11/23 02:24:17;;;;;;;4.35;2.00;;;5.80;68.40;;;;;;2548533;53;20962;-69
2021/11/23 02:26:44;;;;;;;3.75;1.95;;;5.60;68.30;;;;;;2546534;53;21387;-68
2021/11/23 02:29:10;;;;;;;3.83;1.90;;;5.80;68.60;;;;;;2552048;54;21510;-69
2021/11/23 02:31:40;;;;;;;3.45;1.90;;;5.70;68.50;;;;;;2548627;53;20999;-70
2021/11/23 02:34:07;;;;;;;4.05;2.10;;;5.60;68.40;;;;;;2310532;54;21262;-69
2021/11/23 02:36:35;;;;;;;3.95;2.10;;;5.60;68.40;;;;;;2566317;53;21017;-68
2021/11/23 02:39:04;;;;;;;3.92;2.12;;;5.60;68.40;;;;;;2322779;54;21001;-68
2021/11/23 02:41:31;;;;;;;3.72;2.17;;;5.50;68.30;;;;;;2532609;53;21044;-70
2021/11/23 02:43:57;;;;;;;3.58;2.20;;;5.50;68.30;;;;;;2328342;53;21491;-69
2021/11/23 02:46:24;;;;;;;4.97;2.47;;;5.40;68.30;;;;;;2315320;54;20972;-68
2021/11/23 02:48:55;;;;;;;4.15;2.28;;;5.30;68.40;;;;;;2552919;54;21062;-69
2021/11/23 02:51:23;;;;;;;4.62;2.28;;;5.30;68.40;;;;;;2553724;54;20951;-70
2021/11/23 02:53:51;;;;;;;3.37;1.92;;;5.20;68.40;;;;;;2330826;54;20982;-69
2021/11/23 02:56:19;;;;;;;3.87;2.10;;;5.20;68.60;;;;;;2574493;53;20990;-69
2021/11/23 02:58:51;;;;;;;4.55;2.33;;;5.20;68.60;;;;;;2325173;54;20979;-68
2021/11/23 03:01:23;;;;;;;4.47;2.03;;;5.10;68.50;;;;;;2327682;53;21007;-69
2021/11/23 03:03:49;;;;;;;3.40;1.90;;;5.10;68.50;;;;;;2586481;53;21028;-68
2021/11/23 03:06:17;;;;;;;4.05;2.00;;;5.10;68.50;;;;;;2328984;53;21420;-68
2021/11/23 03:08:46;;;;;;;3.67;1.95;;;5.00;68.40;;;;;;2331073;54;21025;-70
2021/11/23 03:11:14;;;;;;;4.70;1.92;;;5.00;68.40;;;;;;2570725;53;20921;-69
2021/11/23 03:13:40;;;;;;;3.85;1.87;;;5.00;68.50;;;;;;2340765;54;20925;-68
2021/11/23 03:16:07;;;;;;;4.35;2.15;;;4.90;68.40;;;;;;2585565;53;21379;-68
2021/11/23 03:18:37;;;;;;;4.85;2.72;;;4.90;68.40;;;;;;2565397;53;20946;-69
2021/11/23 03:21:03;;;;;;;7.35;3.28;;;4.90;68.40;;;;;;2326064;54;20978;-70
2021/11/23 03:23:32;;;;;;;7.12;3.65;;;4.90;68.50;;;;;;2581140;53;20917;-68
2021/11/23 03:26:01;;;;;;;10.70;5.15;;;4.80;68.40;;;;;;2571785;53;21404;-68
2021/11/23 03:28:27;;;;;;;10.75;5.35;;;4.80;68.40;;;;;;2325221;54;20911;-69
2021/11/23 03:30:56;;;;;;;8.43;4.03;;;4.80;68.40;;;;;;2564778;53;21013;-70
2021/11/23 03:33:23;;;;;;;6.60;3.08;;;4.70;68.30;;;;;;2322979;54;21041;-69
2021/11/23 03:35:50;;;;;;;7.57;3.47;;;4.70;68.20;;;;;;2577284;53;21047;-69
2021/11/23 03:38:17;;;;;;;5.15;2.72;;;4.70;68.20;;;;;;2560219;53;21131;-68
2021/11/23 03:40:44;;;;;;;4.35;2.35;;;4.60;68.10;;;;;;2320370;54;20948;-68
2021/11/23 03:43:11;;;;;;;5.47;2.80;;;4.60;68.20;;;;;;2586719;53;20917;-68
2021/11/23 03:45:37;;;;;;;3.97;2.00;;;4.60;68.20;;;;;;2586638;53;20957;-69
2021/11/23 03:48:04;;;;;;;4.22;2.03;;;4.50;68.00;;;;;;2587027;53;21528;-69
2021/11/23 03:50:32;;;;;;;4.53;2.12;;;4.50;68.10;;;;;;2559047;53;20966;-68
2021/11/23 03:53:00;;;;;;;3.78;2.10;;;4.40;68.00;;;;;;2294361;55;21051;-68
2021/11/23 03:55:27;;;;;;;4.85;2.28;;;4.40;68.10;;;;;;2520706;54;21014;-68
2021/11/23 03:57:56;;;;;;;6.72;2.25;;;4.40;68.10;;;;;;2314455;54;21058;-69
2021/11/23 04:00:23;;;;;;;4.78;2.17;;;4.30;68.10;;;;;;2539046;53;20940;-69
2021/11/23 04:02:50;;;;;;;5.03;2.40;;;4.30;68.20;;;;;;2314964;54;20940;-68
2021/11/23 04:05:18;;;;;;;4.78;2.40;;;4.30;68.20;;;;;;2535425;54;20956;-68
2021/11/23 04:07:44;;;;;;;4.60;2.00;;;4.30;68.20;;;;;;2544725;54;20972;-68
2021/11/23 04:10:15;;;;;;;4.00;2.17;;;4.20;68.20;;;;;;2312314;55;20919;-68
2021/11/23 04:12:44;;;;;;;4.10;2.03;;;4.20;68.20;;;;;;2317945;54;21222;-70
2021/11/23 04:15:11;;;;;;;3.60;1.90;;;4.20;68.20;;;;;;2533858;54;20948;-69
2021/11/23 04:17:39;;;;;;;3.97;2.12;;;4.10;68.20;;;;;;2315359;54;20949;-69
2021/11/23 04:20:10;;;;;;;4.05;2.30;;;4.10;68.20;;;;;;2548131;54;21585;-69
2021/11/23 04:22:38;;;;;;;3.85;2.17;;;4.10;68.10;;;;;;2309235;55;21537;-69
2021/11/23 04:25:08;;;;;;;4.37;2.05;;;4.00;68.00;;;;;;2527049;54;20952;-68
2021/11/23 04:27:34;;;;;;;3.22;1.67;;;4.00;68.00;;;;;;2489034;55;21077;-69
2021/11/23 04:30:01;;;;;;;4.12;2.40;;;4.00;68.00;;;;;;2535304;53;21420;-70
2021/11/23 04:32:29;;;;;;;4.12;2.15;;;3.90;67.90;;;;;;2530774;53;21400;-70
2021/11/23 04:34:56;;;;;;;5.05;2.37;;;3.90;67.90;;;;;;2534702;54;20939;-69
2021/11/23 04:37:22;;;;;;;5.05;2.50;;;3.80;67.80;;;;;;2526965;53;21003;-68
2021/11/23 04:39:49;;;;;;;4.37;2.50;;;3.90;67.90;;;;;;2548095;53;20963;-69
2021/11/23 04:42:16;;;;;;;6.93;3.22;;;3.80;67.90;;;;;;2549723;53;20938;-68
2021/11/23 04:44:48;;;;;;;7.80;3.62;;;3.70;67.80;;;;;;2310590;54;20993;-68
2021/11/23 04:47:17;;;;;;;18.95;7.55;;;3.70;67.80;;;;;;2559458;53;21069;-69
2021/11/23 04:49:44;;;;;;;21.60;9.27;;;3.60;67.70;;;;;;2563033;53;20937;-68
2021/11/23 04:52:11;;;;;;;21.95;9.88;;;3.60;67.80;;;;;;2303346;54;21007;-69
2021/11/23 04:54:38;;;;;;;16.05;7.60;;;3.60;67.90;;;;;;2283550;54;21120;-70
2021/11/23 04:57:06;;;;;;;14.32;6.93;;;3.50;67.90;;;;;;2326960;54;21044;-69
2021/11/23 04:59:38;;;;;;;14.13;6.82;;;3.50;67.90;;;;;;2316104;54;21563;-70
2021/11/23 05:02:05;;;;;;;16.15;6.78;;;3.50;68.00;;;;;;2547224;54;21011;-70
2021/11/23 05:04:32;;;;;;;17.02;7.62;;;3.50;68.00;;;;;;2548216;53;21033;-68
2021/11/23 05:06:59;;;;;;;10.10;5.07;;;3.40;67.90;;;;;;2319222;54;20956;-69
2021/11/23 05:09:28;;;;;;;10.40;4.82;;;3.40;67.80;;;;;;2520199;54;21666;-69
2021/11/23 05:11:54;;;;;;;7.53;3.75;;;3.40;67.90;;;;;;2314840;54;21011;-68
2021/11/23 05:14:22;;;;;;;7.90;3.70;;;3.30;67.70;;;;;;2544185;54;21888;-70
2021/11/23 05:16:50;;;;;;;5.45;2.78;;;3.30;67.90;;;;;;2298621;55;20946;-70
2021/11/23 05:19:19;;;;;;;5.10;2.90;;;3.30;68.00;;;;;;2542869;54;21508;-69
2021/11/23 05:21:46;;;;;;;5.25;2.80;;;3.30;68.20;;;;;;2546087;54;21485;-67
2021/11/23 05:24:14;;;;;;;5.68;2.95;;;3.20;68.10;;;;;;2543867;54;20972;-70
2021/11/23 05:26:42;;;;;;;5.57;2.35;;;3.20;68.20;;;;;;2319946;54;21909;-69
2021/11/23 05:29:22;;;;;;;;;;;;;;;;;;;;;
2021/11/23 05:31:48;;;;;;;5.20;2.70;;;3.20;68.20;;;;;;2316030;54;20963;-69
2021/11/23 05:34:15;;;;;;;5.10;2.70;;;3.20;68.20;;;;;;2314261;54;20995;-70
2021/11/23 05:36:53;;;;;;;6.57;2.85;;;3.10;68.20;;;;;;2541428;54;21476;-69
2021/11/23 05:39:44;;;;;;;5.07;2.70;;;3.10;68.20;;;;;;2545426;53;20962;-70
2021/11/23 05:42:10;;;;;;;5.45;2.87;;;3.10;68.20;;;;;;2553018;53;21527;-68
2021/11/23 05:44:37;;;;;;;6.47;2.62;;;3.10;68.30;;;;;;2314793;54;21040;-68
2021/11/23 05:47:04;;;;;;;5.47;2.95;;;3.10;68.20;;;;;;2551855;53;20954;-69
2021/11/23 05:49:30;;;;;;;5.22;3.00;;;3.00;68.20;;;;;;2322419;54;20961;-69
2021/11/23 05:51:58;;;;;;;6.18;3.55;;;3.00;68.10;;;;;;2318013;54;21979;-69
2021/11/23 05:54:24;;;;;;;6.55;3.72;;;3.00;68.20;;;;;;2555415;53;21035;-69
2021/11/23 05:56:51;;;;;;;8.02;4.40;;;3.00;68.20;;;;;;2544506;54;21595;-69
2021/11/23 05:59:59;;;;;;;5.97;3.17;;;3.00;68.30;;;;;;2289244;55;21009;-71
2021/11/23 06:02:28;;;;;;;7.62;4.07;;;3.00;68.20;;;;;;2554118;53;21882;-70
2021/11/23 06:04:55;;;;;;;6.87;3.50;;;3.00;68.20;;;;;;2553020;53;21013;-71
2021/11/23 06:07:21;;;;;;;7.07;3.47;;;2.90;68.10;;;;;;2545117;54;21570;-71
2021/11/23 06:10:21;;;;;;;7.65;3.83;;;2.90;68.10;;;;;;2316903;54;21003;-68
2021/11/23 06:12:49;;;;;;;9.32;4.10;;;2.90;68.00;;;;;;2545184;54;20940;-69
2021/11/23 06:15:15;;;;;;;7.03;3.62;;;2.90;68.20;;;;;;2310304;54;20950;-71
2021/11/23 06:17:42;;;;;;;6.12;3.20;;;2.80;68.20;;;;;;2550063;53;20973;-70
2021/11/23 06:20:08;;;;;;;6.95;3.70;;;2.80;68.10;;;;;;2314196;54;21027;-71
2021/11/23 06:22:35;;;;;;;7.53;3.92;;;2.80;68.10;;;;;;2550273;53;20947;-68
2021/11/23 06:25:04;;;;;;;9.00;4.50;;;2.80;68.10;;;;;;2317411;54;20935;-70
2021/11/23 06:27:30;;;;;;;7.82;3.97;;;2.80;68.20;;;;;;2544404;54;20971;-68
2021/11/23 06:29:58;;;;;;;8.52;4.72;;;2.80;68.30;;;;;;2553683;53;20935;-69
2021/11/23 06:32:26;;;;;;;8.75;4.75;;;2.80;68.30;;;;;;2572938;53;21774;-69
2021/11/23 06:34:54;;;;;;;10.18;5.32;;;2.70;68.20;;;;;;2544776;53;20944;-68
2021/11/23 06:37:21;;;;;;;9.05;5.05;;;2.70;68.20;;;;;;2545709;54;22095;-70
2021/11/23 06:39:47;;;;;;;9.25;4.82;;;2.70;68.20;;;;;;2308737;54;20965;-68
2021/11/23 06:42:15;;;;;;;9.85;5.10;;;2.70;68.30;;;;;;2549267;53;21455;-68
2021/11/23 06:44:41;;;;;;;10.02;4.85;;;2.70;68.30;;;;;;2544824;54;21007;-70
2021/11/23 06:47:08;;;;;;;6.95;3.80;;;2.70;68.30;;;;;;2311873;54;20959;-72
2021/11/23 06:49:34;;;;;;;8.60;4.93;;;2.70;68.30;;;;;;2312463;54;20998;-70
2021/11/23 06:52:01;;;;;;;9.27;5.20;;;2.70;68.30;;;;;;2546397;54;21039;-71
2021/11/23 06:54:31;;;;;;;8.73;5.20;;;2.60;68.20;;;;;;2315672;54;21898;-68
2021/11/23 06:56:59;;;;;;;8.10;4.68;;;2.60;68.20;;;;;;2547144;54;21383;-70
2021/11/23 06:59:30;;;;;;;8.48;4.32;;;2.60;68.20;;;;;;2544691;54;21025;-68
2021/11/23 07:01:56;;;;;;;9.27;4.32;;;2.60;68.20;;;;;;2545241;53;21020;-70
2021/11/23 07:04:44;;;;;;;8.13;4.10;;;2.60;68.30;;;;;;2313960;54;21111;-72
2021/11/23 07:07:11;;;;;;;6.70;3.50;;;2.60;68.40;;;;;;2543191;54;20943;-70
2021/11/23 07:09:38;;;;;;;6.85;3.87;;;2.60;68.50;;;;;;2317358;54;20974;-70
2021/11/23 07:12:08;;;;;;;7.37;4.22;;;2.60;68.50;;;;;;2553869;53;20927;-68
2021/11/23 07:14:36;;;;;;;7.18;3.95;;;2.60;68.50;;;;;;2321204;54;21058;-71
2021/11/23 07:17:05;;;;;;;8.27;3.90;;;2.60;68.50;;;;;;2547338;54;21075;-70
2021/11/23 07:19:32;;;;;;;6.65;3.83;;;2.60;68.40;;;;;;2541425;54;21112;-68
2021/11/23 07:21:58;;;;;;;9.95;4.22;;;2.50;68.30;;;;;;2541653;53;21041;-68
2021/11/23 07:24:39;;;;;;;7.47;3.65;;;2.50;68.40;;;;;;2313211;54;21837;-69
2021/11/23 07:27:06;;;;;;;8.13;4.35;;;2.50;68.50;;;;;;2542160;54;20947;-68
2021/11/23 07:29:33;;;;;;;9.05;4.47;;;2.50;68.70;;;;;;2552105;53;20971;-67
2021/11/23 07:31:59;;;;;;;7.50;4.35;;;2.50;68.70;;;;;;2313489;54;21492;-67
2021/11/23 07:34:29;;;;;;;10.38;5.55;;;2.50;68.80;;;;;;2308834;54;20951;-68
2021/11/23 07:36:55;;;;;;;10.15;6.15;;;2.50;68.80;;;;;;2553625;53;21903;-68
2021/11/23 07:39:27;;;;;;;11.00;6.82;;;2.60;68.90;;;;;;2544451;54;21028;-69
2021/11/23 07:41:54;;;;;;;8.75;5.20;;;2.60;69.00;;;;;;2543730;54;20996;-68
2021/11/23 07:44:20;;;;;;;9.93;5.90;;;2.60;69.00;;;;;;2317247;54;21144;-68
2021/11/23 07:46:47;;;;;;;9.70;6.25;;;2.60;69.00;;;;;;2544915;54;20991;-70
2021/11/23 07:49:13;;;;;;;8.95;4.97;;;2.60;69.10;;;;;;2316403;54;20923;-68
2021/11/23 07:51:40;;;;;;;9.30;5.55;;;2.60;69.10;;;;;;2320624;54;21010;-69
2021/11/23 07:54:10;;;;;;;8.85;5.32;;;2.60;69.20;;;;;;2546627;54;21066;-69
2021/11/23 07:56:36;;;;;;;8.60;5.37;;;2.60;69.20;;;;;;2314457;54;20969;-71
2021/11/23 07:59:03;;;;;;;9.63;4.90;;;2.60;69.20;;;;;;2312431;54;21059;-71
2021/11/23 08:01:29;;;;;;;11.10;5.93;;;2.60;69.20;;;;;;2545147;53;21013;-71
2021/11/23 08:03:56;;;;;;;9.52;5.65;;;2.70;69.40;;;;;;2316374;54;20999;-70
2021/11/23 08:06:24;;;;;;;11.45;5.97;;;2.70;69.50;;;;;;2555993;53;21014;-68
2021/11/23 08:08:50;;;;;;;13.68;6.57;;;2.70;69.60;;;;;;2320668;54;20999;-70
2021/11/23 08:11:19;;;;;;;12.95;6.35;;;2.70;69.70;;;;;;2540576;54;21019;-70
2021/11/23 08:13:49;;;;;;;10.23;5.75;;;2.70;69.80;;;;;;2547654;53;20941;-69
2021/11/23 08:16:18;;;;;;;11.63;6.10;;;2.80;69.90;;;;;;2294388;55;21002;-70
2021/11/23 08:18:46;;;;;;;11.05;6.35;;;2.80;70.00;;;;;;2314666;54;21742;-71
2021/11/23 08:21:12;;;;;;;8.35;4.90;;;2.90;70.00;;;;;;2566382;53;21434;-70
2021/11/23 08:23:39;;;;;;;10.63;5.62;;;2.90;70.10;;;;;;2317915;54;20957;-71
2021/11/23 08:26:07;;;;;;;12.18;5.25;;;2.90;70.10;;;;;;2319408;54;21072;-68
2021/11/23 08:28:37;;;;;;;10.45;5.85;;;3.00;70.30;;;;;;2311424;54;20985;-70
2021/11/23 08:31:03;;;;;;;9.23;5.45;;;3.00;70.40;;;;;;2545597;53;21064;-71
2021/11/23 08:33:31;;;;;;;10.55;5.82;;;3.10;70.60;;;;;;2317796;54;20948;-69
2021/11/23 08:35:58;;;;;;;9.05;4.78;;;3.10;70.70;;;;;;2311259;54;21943;-69
2021/11/23 08:38:24;;;;;;;8.95;5.62;;;3.20;70.80;;;;;;2311882;54;21903;-69
2021/11/23 08:40:51;;;;;;;9.85;5.75;;;3.20;70.80;;;;;;2558302;53;21462;-70
2021/11/23 08:43:17;;;;;;;10.05;5.87;;;3.30;71.00;;;;;;2544704;54;21540;-70
2021/11/23 08:45:46;;;;;;;11.20;5.60;;;3.30;71.70;;;;;;2546156;54;20923;-69
2021/11/23 08:48:52;;;;;;;11.05;5.45;;;3.30;71.00;;;;;;2313317;54;21107;-68
2021/11/23 08:51:23;;;;;;;11.60;5.50;;;3.40;71.00;;;;;;2543984;53;21049;-68
2021/11/23 08:53:49;;;;;;;11.02;6.10;;;3.50;71.20;;;;;;2316934;54;21051;-69
2021/11/23 08:56:16;;;;;;;9.73;5.78;;;3.50;71.20;;;;;;2546529;54;20955;-69
2021/11/23 08:58:44;;;;;;;8.52;5.25;;;3.60;71.30;;;;;;2315794;54;21818;-69
2021/11/23 09:01:35;;;;;;;10.20;5.45;;;3.60;71.30;;;;;;2327320;54;20940;-70
2021/11/23 09:04:04;;;;;;;9.18;5.15;;;3.70;71.30;;;;;;2304382;54;21487;-70
2021/11/23 09:06:33;;;;;;;8.65;5.47;;;3.70;71.40;;;;;;2544276;53;20980;-70
2021/11/23 09:09:00;;;;;;;11.05;5.80;;;3.80;71.50;;;;;;2310965;54;21059;-70
2021/11/23 09:11:27;;;;;;;9.27;5.12;;;3.80;71.50;;;;;;2565226;53;21405;-68
2021/11/23 09:13:56;;;;;;;9.35;5.43;;;3.90;71.70;;;;;;2331404;54;21783;-68
2021/11/23 09:16:23;;;;;;;10.85;5.87;;;3.90;71.70;;;;;;2537172;53;21039;-68
2021/11/23 09:18:50;;;;;;;8.93;5.05;;;4.00;71.70;;;;;;2311039;54;21057;-69
2021/11/23 09:21:17;;;;;;;9.10;5.57;;;4.10;71.80;;;;;;2551520;53;20974;-68
2021/11/23 09:23:44;;;;;;;10.80;5.55;;;4.10;71.70;;;;;;2309380;54;20924;-67
2021/11/23 09:26:16;;;;;;;8.88;5.32;;;4.20;71.90;;;;;;2565051;53;21006;-68
2021/11/23 09:28:44;;;;;;;10.13;5.70;;;4.30;71.90;;;;;;2323582;54;20964;-68
2021/11/23 09:34:38;;;;;;;10.55;5.97;;;4.40;71.90;;;;;;2545092;53;22034;-69
2021/11/23 09:37:05;;;;;;;10.80;6.12;;;4.50;72.10;;;;;;2314304;54;20997;-70
2021/11/23 09:39:31;;;;;;;10.45;5.60;;;4.60;72.10;;;;;;2316985;54;20961;-69
2021/11/23 09:42:00;;;;;;;11.52;5.97;;;4.60;72.10;;;;;;2545768;54;21027;-69
2021/11/23 09:44:26;;;;;;;9.52;5.72;;;4.70;72.50;;;;;;2538840;53;21583;-68
2021/11/23 09:46:53;;;;;;;11.15;6.03;;;4.80;73.70;;;;;;2573877;53;20972;-68
2021/11/23 09:49:21;;;;;;;11.32;6.90;;;5.00;75.80;;;;;;2557025;53;20976;-71
2021/11/23 09:51:48;;;;;;;10.10;6.75;;;5.30;77.70;;;;;;2551181;53;21022;-68
2021/11/23 09:54:14;;;;;;;11.40;6.53;;;5.70;79.50;;;;;;2314270;54;20999;-69
2021/11/23 09:56:46;;;;;;;10.63;6.53;;;6.10;80.60;;;;;;2544677;53;21001;-69
2021/11/23 09:59:12;;;;;;;9.60;6.68;;;6.50;81.20;;;;;;2544196;54;21942;-68
2021/11/23 10:01:50;;;;;;;9.38;6.50;;;7.00;81.30;;;;;;2540857;53;20979;-71
2021/11/23 10:04:28;;;;;;;8.45;5.68;;;7.50;80.90;;;;;;2312130;54;20976;-70
2021/11/23 10:07:05;;;;;;;8.55;6.22;;;7.90;79.60;;;;;;2540942;54;21770;-70
2021/11/23 10:09:44;;;;;;;8.80;6.07;;;8.30;79.20;;;;;;2320904;54;21055;-69
2021/11/23 10:12:21;;;;;;;8.10;5.55;;;8.70;78.70;;;;;;2518098;54;21961;-69
2021/11/23 10:15:24;;;;;;;8.23;5.50;;;9.00;78.40;;;;;;2294985;54;21034;-70
2021/11/23 10:18:05;;;;;;;8.52;5.78;;;9.40;76.80;;;;;;2542612;53;21059;-71
2021/11/23 10:20:34;;;;;;;6.78;4.87;;;9.70;75.50;;;;;;2308866;54;20961;-70
2021/11/23 10:23:22;;;;;;;7.47;5.35;;;9.80;73.90;;;;;;2310365;54;20945;-70
2021/11/23 10:25:52;;;;;;;8.50;5.20;;;9.90;72.40;;;;;;2293682;54;21020;-71
2021/11/23 10:28:25;;;;;;;7.50;5.32;;;10.00;71.60;;;;;;2548716;53;21917;-70
2021/11/23 10:30:51;;;;;;;8.00;5.18;;;10.10;71.10;;;;;;2315576;53;20987;-71
2021/11/23 10:33:19;;;;;;;8.13;4.93;;;10.10;71.70;;;;;;2293072;55;21026;-71
2021/11/23 10:35:51;;;;;;;8.38;5.65;;;10.20;70.50;;;;;;2486607;54;20978;-69
2021/11/23 10:38:18;;;;;;;7.45;4.97;;;10.30;69.80;;;;;;2532502;54;21119;-68
2021/11/23 10:40:46;;;;;;;7.85;5.18;;;10.30;69.20;;;;;;2288046;54;21010;-69
2021/11/23 10:43:20;;;;;;;8.90;5.70;;;10.20;68.90;;;;;;2530964;54;20932;-70
2021/11/23 10:46:38;;;;;;;8.75;5.40;;;10.20;68.50;;;;;;2305441;54;21907;-71
2021/11/23 10:49:08;;;;;;;8.00;5.20;;;10.10;68.10;;;;;;2542666;53;20943;-71
2021/11/23 10:51:40;;;;;;;7.50;4.82;;;10.10;68.70;;;;;;2299098;55;20940;-71
2021/11/23 10:54:16;;;;;;;9.68;5.65;;;10.10;68.30;;;;;;2546387;53;20957;-70
2021/11/23 10:56:58;;;;;;;8.68;5.78;;;10.10;68.30;;;;;;2314750;54;20979;-70
2021/11/23 10:59:24;;;;;;;7.45;4.85;;;10.10;68.10;;;;;;2297716;54;21019;-70
2021/11/23 11:01:55;;;;;;;8.88;5.53;;;10.10;68.70;;;;;;2293913;55;20973;-72
2021/11/23 11:04:23;;;;;;;7.57;5.47;;;10.00;68.60;;;;;;2310284;53;21005;-70
2021/11/23 11:07:21;;;;;;;7.18;5.47;;;10.00;68.80;;;;;;2323399;53;20937;-68
2021/11/23 11:09:48;;;;;;;9.13;5.60;;;10.00;68.50;;;;;;2295506;54;20951;-71
2021/11/23 11:12:16;;;;;;;7.72;5.45;;;10.00;69.00;;;;;;2281877;54;21133;-70
2021/11/23 11:14:42;;;;;;;10.45;5.57;;;10.00;68.60;;;;;;2288437;54;21046;-70
2021/11/23 11:17:09;;;;;;;7.70;5.20;;;10.00;68.30;;;;;;2530084;54;21567;-68
2021/11/23 11:19:51;;;;;;;7.30;5.37;;;9.90;69.20;;;;;;2312967;54;20954;-72
2021/11/23 11:22:24;;;;;;;7.62;5.35;;;9.90;68.60;;;;;;2322057;54;21020;-70
2021/11/23 11:25:38;;;;;;;8.18;5.12;;;9.80;69.00;;;;;;2313761;54;21926;-69
2021/11/23 11:28:04;;;;;;;8.02;5.12;;;9.80;68.00;;;;;;2310276;54;20941;-70
2021/11/23 11:30:41;;;;;;;6.78;4.82;;;9.70;69.20;;;;;;2316471;54;21099;-71
2021/11/23 11:33:21;;;;;;;7.15;4.95;;;9.70;69.30;;;;;;2322232;54;20979;-70
2021/11/23 11:36:03;;;;;;;6.65;4.57;;;9.60;69.50;;;;;;2320353;54;21432;-69
2021/11/23 11:38:43;;;;;;;8.05;5.43;;;9.60;69.60;;;;;;2315385;54;20938;-72
2021/11/23 11:41:34;;;;;;;7.25;5.07;;;9.60;70.10;;;;;;2544777;53;21024;-71
2021/11/23 11:44:11;;;;;;;6.77;4.30;;;9.70;69.80;;;;;;2294299;54;1398424;-71
2021/11/23 11:46:37;;;;;;;7.93;4.80;;;9.70;70.70;;;;;;2316183;54;20953;-70
2021/11/23 11:49:04;;;;;;;6.80;4.78;;;9.70;71.00;;;;;;2310736;54;21064;-70
2021/11/23 11:51:41;;;;;;;7.30;5.00;;;9.80;70.90;;;;;;2310941;54;21148;-71
2021/11/23 11:54:21;;;;;;;7.57;4.57;;;9.80;70.40;;;;;;2543155;53;21031;-71
2021/11/23 11:56:50;;;;;;;7.75;5.03;;;9.80;69.90;;;;;;2544300;54;21062;-70
2021/11/23 11:59:32;;;;;;;8.27;5.80;;;9.90;70.50;;;;;;2299683;54;20986;-71
2021/11/23 12:02:01;;;;;;;10.60;6.87;;;9.90;70.00;;;;;;2310221;54;20954;-69
2021/11/23 12:04:32;;;;;;;8.63;5.93;;;9.90;70.40;;;;;;2319541;54;21317;-70
2021/11/23 12:10:45;;;;;;;7.30;5.40;;;10.00;69.30;;;;;;2561221;53;21051;-70
2021/11/23 12:13:15;;;;;;;8.00;5.35;;;10.10;70.00;;;;;;2554010;53;21111;-70
2021/11/23 12:19:27;;;;;;;7.82;5.45;;;10.10;70.60;;;;;;2312190;54;20976;-71
2021/11/23 12:22:29;;;;;;;6.78;4.75;;;10.20;69.20;;;;;;2316365;54;21013;-70
2021/11/23 12:25:04;;;;;;;8.45;4.82;;;10.40;69.70;;;;;;2298204;54;21004;-69
2021/11/23 12:27:34;;;;;;;6.97;4.95;;;10.50;70.10;;;;;;2316232;54;21027;-69
2021/11/23 12:30:00;;;;;;;7.75;5.40;;;10.50;70.00;;;;;;2310195;54;20981;-70
2021/11/23 12:32:32;;;;;;;7.60;5.32;;;10.60;70.20;;;;;;2320283;54;20951;-70
2021/11/23 12:34:58;;;;;;;7.47;5.28;;;10.60;70.00;;;;;;2305281;54;21139;-70
2021/11/23 12:37:56;;;;;;;7.93;5.60;;;10.60;70.50;;;;;;2312304;54;21011;-70
2021/11/23 12:40:25;;;;;;;8.52;5.62;;;10.70;69.60;;;;;;2312045;54;20984;-71
2021/11/23 12:42:55;;;;;;;8.32;5.90;;;10.80;70.70;;;;;;2555798;53;20939;-71
2021/11/23 12:46:57;;;;;;;7.78;5.18;;;10.90;70.80;;;;;;2331732;54;21870;-71
2021/11/23 12:49:42;;;;;;;8.15;5.45;;;11.10;69.00;;;;;;2320563;54;21820;-72
2021/11/23 12:52:12;;;;;;;8.48;5.65;;;11.30;70.40;;;;;;2545503;53;20972;-72
2021/11/23 12:54:40;;;;;;;7.85;5.95;;;11.50;71.60;;;;;;2319636;54;20928;-72
2021/11/23 12:57:16;;;;;;;8.15;6.00;;;11.60;71.40;;;;;;2550337;53;21033;-71
2021/11/23 13:00:01;;;;;;;7.68;5.87;;;11.80;70.60;;;;;;2519685;54;21553;-72
2021/11/23 13:03:38;;;;;;;8.93;5.72;;;11.90;70.40;;;;;;2286361;54;21059;-71
2021/11/23 13:06:10;;;;;;;8.45;5.10;;;12.20;68.60;;;;;;2280167;55;21008;-71
2021/11/23 13:12:05;;;;;;;6.65;4.65;;;12.50;69.10;;;;;;2516953;54;21000;-71
2021/11/23 13:14:56;;;;;;;5.93;4.72;;;12.60;69.90;;;;;;2527079;54;20964;-72
2021/11/23 13:17:39;;;;;;;6.82;4.68;;;12.80;68.70;;;;;;2296295;54;21113;-72
2021/11/23 13:20:07;;;;;;;5.72;4.35;;;12.90;68.60;;;;;;2485878;55;20919;-72
2021/11/23 13:22:42;;;;;;;6.68;4.80;;;13.00;69.00;;;;;;2284339;54;21058;-72
2021/11/23 13:25:09;;;;;;;6.25;4.40;;;13.10;67.80;;;;;;2559525;53;21459;-73
2021/11/23 13:27:37;;;;;;;6.85;5.00;;;13.10;68.10;;;;;;2295437;54;20998;-71
2021/11/23 13:30:54;;;;;;;6.50;4.20;;;13.10;68.10;;;;;;2532941;53;20961;-72